Sao Miguel do Araguaia, Brazil
Current Conditions -  °F | °C
As of 9:00 PM on Saturday 20 Dec 2014 (Local Time) from SBAN Reporting Station
Broken Clouds Broken Clouds  
Wind Chill: 68°   Ceiling: 500
Heat Index: 68°   Visibility: 6mi
Dew Point: 64°   Wind: 3mph
Humidity: 88%   Direction: 10°N
Pressure: 30.03"   Gusts: NA
Location:  13.28°S, 50.16°W
Report Text: SBAN 202300Z 01003KT 9999 BKN005 BKN080 20/18 Q1017
Loading
Personal Weather Stations






























Interactive Weather Map New forecast layout! Learn more

10-Day Weather Forecast

Advertisements
Track Severe Weather on mobile